sensor_id;sensor_type;location;lat;lon;timestamp;pressure;altitude;pressure_sealevel;temperature;humidity
48872;BME280;36154;51.674;7.824;2022-09-17T00:00:37;100244.66;;;24.29;47.81
48872;BME280;36154;51.674;7.824;2022-09-17T00:03:03;100242.94;;;24.27;47.51
48872;BME280;36154;51.674;7.824;2022-09-17T00:05:29;100241.25;;;24.26;47.86
48872;BME280;36154;51.674;7.824;2022-09-17T00:07:54;100247.31;;;24.27;47.78
48872;BME280;36154;51.674;7.824;2022-09-17T00:10:19;100239.59;;;24.25;47.44
48872;BME280;36154;51.674;7.824;2022-09-17T00:12:46;100246.44;;;24.26;47.64
48872;BME280;36154;51.674;7.824;2022-09-17T00:15:11;100245.63;;;24.26;47.54
48872;BME280;36154;51.674;7.824;2022-09-17T00:17:37;100251.66;;;24.26;47.84
48872;BME280;36154;51.674;7.824;2022-09-17T00:20:03;100255.19;;;24.25;47.72
48872;BME280;36154;51.674;7.824;2022-09-17T00:22:29;100257.78;;;24.25;47.81
48872;BME280;36154;51.674;7.824;2022-09-17T00:24:54;100256.00;;;24.26;47.77
48872;BME280;36154;51.674;7.824;2022-09-17T00:27:20;100262.97;;;24.25;47.85
48872;BME280;36154;51.674;7.824;2022-09-17T00:29:47;100258.69;;;24.24;47.71
48872;BME280;36154;51.674;7.824;2022-09-17T00:32:12;100264.75;;;24.25;47.67
48872;BME280;36154;51.674;7.824;2022-09-17T00:34:38;100252.66;;;24.24;47.69
48872;BME280;36154;51.674;7.824;2022-09-17T00:37:03;100253.47;;;24.24;47.74
48872;BME280;36154;51.674;7.824;2022-09-17T00:39:28;100279.53;;;24.23;47.46
48872;BME280;36154;51.674;7.824;2022-09-17T00:41:54;100267.41;;;24.23;47.46
48872;BME280;36154;51.674;7.824;2022-09-17T00:44:43;100258.81;;;24.21;47.59
48872;BME280;36154;51.674;7.824;2022-09-17T00:47:34;100261.34;;;24.23;47.79
48872;BME280;36154;51.674;7.824;2022-09-17T00:50:06;100259.69;;;24.22;47.39
48872;BME280;36154;51.674;7.824;2022-09-17T00:52:35;100267.47;;;24.22;47.79
48872;BME280;36154;51.674;7.824;2022-09-17T00:55:09;100262.34;;;24.20;47.55
48872;BME280;36154;51.674;7.824;2022-09-17T00:57:36;100273.50;;;24.22;47.45
48872;BME280;36154;51.674;7.824;2022-09-17T01:00:04;100252.09;;;24.17;47.88
48872;BME280;36154;51.674;7.824;2022-09-17T01:02:30;100265.78;;;24.21;47.49
48872;BME280;36154;51.674;7.824;2022-09-17T01:04:55;100262.34;;;24.20;47.98
48872;BME280;36154;51.674;7.824;2022-09-17T01:07:51;100274.41;;;24.21;47.43
48872;BME280;36154;51.674;7.824;2022-09-17T01:16:02;100274.56;;;24.18;47.31
48872;BME280;36154;51.674;7.824;2022-09-17T01:18:59;100277.19;;;24.18;47.36
48872;BME280;36154;51.674;7.824;2022-09-17T01:21:35;100277.19;;;24.18;47.39
48872;BME280;36154;51.674;7.824;2022-09-17T01:27:27;100273.72;;;24.18;47.51
48872;BME280;36154;51.674;7.824;2022-09-17T01:32:44;100288.47;;;24.17;47.49
48872;BME280;36154;51.674;7.824;2022-09-17T01:40:34;100287.63;;;24.17;47.35
48872;BME280;36154;51.674;7.824;2022-09-17T01:43:24;100291.13;;;24.16;47.44
48872;BME280;36154;51.674;7.824;2022-09-17T01:45:58;100290.31;;;24.15;47.57
48872;BME280;36154;51.674;7.824;2022-09-17T01:48:32;100297.16;;;24.16;47.57
48872;BME280;36154;51.674;7.824;2022-09-17T01:51:06;100286.78;;;24.16;47.58
48872;BME280;36154;51.674;7.824;2022-09-17T01:53:41;100281.56;;;24.16;47.31
48872;BME280;36154;51.674;7.824;2022-09-17T01:56:09;100285.09;;;24.15;47.57
48872;BME280;36154;51.674;7.824;2022-09-17T01:58:47;100292.91;;;24.15;47.37
48872;BME280;36154;51.674;7.824;2022-09-17T02:01:16;100285.09;;;24.15;47.30
48872;BME280;36154;51.674;7.824;2022-09-17T02:03:51;100296.34;;;24.16;47.43
48872;BME280;36154;51.674;7.824;2022-09-17T02:06:24;100300.69;;;24.15;47.53
48872;BME280;36154;51.674;7.824;2022-09-17T02:09:22;100297.25;;;24.15;47.22
48872;BME280;36154;51.674;7.824;2022-09-17T02:11:51;100294.63;;;24.15;47.26
48872;BME280;36154;51.674;7.824;2022-09-17T02:14:38;100295.50;;;24.15;47.11
48872;BME280;36154;51.674;7.824;2022-09-17T02:17:10;100304.19;;;24.14;47.25
48872;BME280;36154;51.674;7.824;2022-09-17T02:19:37;100295.56;;;24.14;47.49
48872;BME280;36154;51.674;7.824;2022-09-17T02:28:09;100292.19;;;24.12;47.23
48872;BME280;36154;51.674;7.824;2022-09-17T02:30:36;100305.09;;;24.13;47.27
48872;BME280;36154;51.674;7.824;2022-09-17T02:33:04;100294.81;;;24.12;47.21
48872;BME280;36154;51.674;7.824;2022-09-17T02:35:31;100300.84;;;24.12;47.17
48872;BME280;36154;51.674;7.824;2022-09-17T02:37:58;100300.84;;;24.12;46.89
48872;BME280;36154;51.674;7.824;2022-09-17T02:40:26;100292.28;;;24.10;47.20
48872;BME280;36154;51.674;7.824;2022-09-17T02:48:55;100308.63;;;24.12;47.09
48872;BME280;36154;51.674;7.824;2022-09-17T02:51:31;100309.53;;;24.11;47.49
48872;BME280;36154;51.674;7.824;2022-09-17T02:54:37;100302.66;;;24.10;47.10
48872;BME280;36154;51.674;7.824;2022-09-17T02:57:22;100311.38;;;24.09;47.25
48872;BME280;36154;51.674;7.824;2022-09-17T03:00:13;100300.97;;;24.09;47.20
48872;BME280;36154;51.674;7.824;2022-09-17T03:03:05;100308.75;;;24.09;47.29
48872;BME280;36154;51.674;7.824;2022-09-17T03:05:34;100304.34;;;24.11;47.36
48872;BME280;36154;51.674;7.824;2022-09-17T03:08:00;100310.47;;;24.10;47.35
48872;BME280;36154;51.674;7.824;2022-09-17T03:10:26;100313.75;;;24.14;47.18
48872;BME280;36154;51.674;7.824;2022-09-17T03:12:54;100309.41;;;24.14;47.14
48872;BME280;36154;51.674;7.824;2022-09-17T03:15:20;100314.59;;;24.14;47.03
48872;BME280;36154;51.674;7.824;2022-09-17T03:17:45;100317.97;;;24.16;47.23
48872;BME280;36154;51.674;7.824;2022-09-17T03:20:10;100306.72;;;24.16;46.87
48872;BME280;36154;51.674;7.824;2022-09-17T03:22:35;100314.47;;;24.17;47.05
48872;BME280;36154;51.674;7.824;2022-09-17T03:25:01;100314.47;;;24.17;47.06
48872;BME280;36154;51.674;7.824;2022-09-17T03:27:26;100314.47;;;24.17;46.81
48872;BME280;36154;51.674;7.824;2022-09-17T03:29:51;100310.97;;;24.18;46.70
48872;BME280;36154;51.674;7.824;2022-09-17T03:32:17;100318.75;;;24.18;46.88
48872;BME280;36154;51.674;7.824;2022-09-17T03:34:42;100320.44;;;24.19;46.91
48872;BME280;36154;51.674;7.824;2022-09-17T03:37:07;100323.03;;;24.19;46.94
48872;BME280;36154;51.674;7.824;2022-09-17T03:39:33;100319.53;;;24.20;46.74
48872;BME280;36154;51.674;7.824;2022-09-17T03:41:58;100323.03;;;24.19;46.89
48872;BME280;36154;51.674;7.824;2022-09-17T03:44:23;100321.25;;;24.20;46.60
48872;BME280;36154;51.674;7.824;2022-09-17T03:46:49;100314.31;;;24.20;46.44
48872;BME280;36154;51.674;7.824;2022-09-17T03:49:15;100317.00;;;24.19;46.61
48872;BME280;36154;51.674;7.824;2022-09-17T03:51:40;100335.13;;;24.20;46.78
48872;BME280;36154;51.674;7.824;2022-09-17T03:54:05;100327.31;;;24.20;46.62
48872;BME280;36154;51.674;7.824;2022-09-17T03:56:31;100327.31;;;24.20;46.61
48872;BME280;36154;51.674;7.824;2022-09-17T03:58:58;100330.75;;;24.21;46.75
48872;BME280;36154;51.674;7.824;2022-09-17T04:01:24;100323.78;;;24.21;46.40
48872;BME280;36154;51.674;7.824;2022-09-17T04:03:49;100331.59;;;24.21;46.39
48872;BME280;36154;51.674;7.824;2022-09-17T04:06:14;100329.91;;;24.20;46.67
48872;BME280;36154;51.674;7.824;2022-09-17T04:08:40;100329.91;;;24.20;46.39
48872;BME280;36154;51.674;7.824;2022-09-17T04:11:05;100335.13;;;24.20;46.69
48872;BME280;36154;51.674;7.824;2022-09-17T04:13:31;100337.72;;;24.20;46.70
48872;BME280;36154;51.674;7.824;2022-09-17T04:15:57;100335.97;;;24.21;46.46
48872;BME280;36154;51.674;7.824;2022-09-17T04:18:22;100334.34;;;24.18;46.44
48872;BME280;36154;51.674;7.824;2022-09-17T04:20:47;100338.56;;;24.21;46.49
48872;BME280;36154;51.674;7.824;2022-09-17T04:23:12;100341.16;;;24.21;46.24
48872;BME280;36154;51.674;7.824;2022-09-17T04:25:38;100336.78;;;24.21;46.55
48872;BME280;36154;51.674;7.824;2022-09-17T04:28:03;100348.13;;;24.20;46.44
48872;BME280;36154;51.674;7.824;2022-09-17T04:30:28;100339.44;;;24.20;46.56
48872;BME280;36154;51.674;7.824;2022-09-17T04:32:54;100347.25;;;24.20;45.98
48872;BME280;36154;51.674;7.824;2022-09-17T04:35:19;100343.81;;;24.19;46.57
48872;BME280;36154;51.674;7.824;2022-09-17T04:37:54;100330.81;;;24.19;46.58
48872;BME280;36154;51.674;7.824;2022-09-17T04:40:20;100346.47;;;24.18;46.25
48872;BME280;36154;51.674;7.824;2022-09-17T04:42:45;100354.22;;;24.19;46.35
48872;BME280;36154;51.674;7.824;2022-09-17T04:45:10;100352.53;;;24.18;46.43
48872;BME280;36154;51.674;7.824;2022-09-17T04:47:39;100349.94;;;24.18;46.42
48872;BME280;36154;51.674;7.824;2022-09-17T04:50:05;100347.34;;;24.18;46.13
48872;BME280;36154;51.674;7.824;2022-09-17T04:52:30;100342.16;;;24.18;46.41
48872;BME280;36154;51.674;7.824;2022-09-17T04:54:56;100340.44;;;24.17;46.43
48872;BME280;36154;51.674;7.824;2022-09-17T04:57:21;100348.25;;;24.17;46.13
48872;BME280;36154;51.674;7.824;2022-09-17T04:59:49;100345.66;;;24.17;46.24
48872;BME280;36154;51.674;7.824;2022-09-17T05:02:14;100345.66;;;24.17;46.04
48872;BME280;36154;51.674;7.824;2022-09-17T05:04:40;100350.84;;;24.17;46.03
48872;BME280;36154;51.674;7.824;2022-09-17T05:07:05;100356.03;;;24.17;46.24
48872;BME280;36154;51.674;7.824;2022-09-17T05:09:30;100351.69;;;24.18;46.29
48872;BME280;36154;51.674;7.824;2022-09-17T05:11:56;100362.06;;;24.18;46.39
48872;BME280;36154;51.674;7.824;2022-09-17T05:14:21;100360.41;;;24.17;46.29
48872;BME280;36154;51.674;7.824;2022-09-17T05:16:46;100366.44;;;24.17;45.92
48872;BME280;36154;51.674;7.824;2022-09-17T05:19:11;100372.47;;;24.18;46.13
48872;BME280;36154;51.674;7.824;2022-09-17T05:21:37;100370.81;;;24.17;46.27
48872;BME280;36154;51.674;7.824;2022-09-17T05:24:02;100369.94;;;24.16;46.04
48872;BME280;36154;51.674;7.824;2022-09-17T05:26:28;100369.94;;;24.16;46.23
48872;BME280;36154;51.674;7.824;2022-09-17T05:28:53;100375.13;;;24.16;46.03
48872;BME280;36154;51.674;7.824;2022-09-17T05:31:19;100374.31;;;24.16;45.98
48872;BME280;36154;51.674;7.824;2022-09-17T05:33:44;100375.13;;;24.16;45.93
48872;BME280;36154;51.674;7.824;2022-09-17T05:36:10;100376.06;;;24.15;45.93
48872;BME280;36154;51.674;7.824;2022-09-17T05:38:35;100372.53;;;24.16;46.05
48872;BME280;36154;51.674;7.824;2022-09-17T05:41:05;100368.28;;;24.15;45.94
48872;BME280;36154;51.674;7.824;2022-09-17T05:43:31;100373.47;;;24.15;45.94
48872;BME280;36154;51.674;7.824;2022-09-17T05:46:03;100369.94;;;24.16;45.97
48872;BME280;36154;51.674;7.824;2022-09-17T05:48:29;100373.47;;;24.15;45.96
48872;BME280;36154;51.674;7.824;2022-09-17T05:50:55;100378.66;;;24.15;46.01
48872;BME280;36154;51.674;7.824;2022-09-17T05:53:20;100376.97;;;24.14;45.85
48872;BME280;36154;51.674;7.824;2022-09-17T05:55:45;100383.88;;;24.15;46.22
48872;BME280;36154;51.674;7.824;2022-09-17T05:58:13;100376.06;;;24.15;45.79
48872;BME280;36154;51.674;7.824;2022-09-17T06:00:39;100372.59;;;24.15;45.97
48872;BME280;36154;51.674;7.824;2022-09-17T06:03:05;100384.69;;;24.16;45.83
48872;BME280;36154;51.674;7.824;2022-09-17T06:05:30;100390.72;;;24.16;45.93
48872;BME280;36154;51.674;7.824;2022-09-17T06:07:56;100394.25;;;24.15;45.78
48872;BME280;36154;51.674;7.824;2022-09-17T06:10:21;100398.53;;;24.16;45.68
48872;BME280;36154;51.674;7.824;2022-09-17T06:12:46;100401.13;;;24.16;46.13
48872;BME280;36154;51.674;7.824;2022-09-17T06:15:12;100401.13;;;24.16;45.78
48872;BME280;36154;51.674;7.824;2022-09-17T06:17:39;100395.94;;;24.16;45.72
48872;BME280;36154;51.674;7.824;2022-09-17T06:20:05;100406.31;;;24.16;45.76
48872;BME280;36154;51.674;7.824;2022-09-17T06:22:30;100413.22;;;24.17;46.00
48872;BME280;36154;51.674;7.824;2022-09-17T06:24:55;100413.22;;;24.17;46.07
48872;BME280;36154;51.674;7.824;2022-09-17T06:27:21;100417.59;;;24.17;45.72
48872;BME280;36154;51.674;7.824;2022-09-17T06:29:46;100420.25;;;24.15;45.64
48872;BME280;36154;51.674;7.824;2022-09-17T06:32:11;100427.13;;;24.16;45.79
48872;BME280;36154;51.674;7.824;2022-09-17T06:34:39;100425.44;;;24.15;45.76
48872;BME280;36154;51.674;7.824;2022-09-17T06:37:05;100432.31;;;24.16;45.74
48872;BME280;36154;51.674;7.824;2022-09-17T06:39:30;100425.44;;;24.15;45.86
48872;BME280;36154;51.674;7.824;2022-09-17T06:41:56;100429.72;;;24.16;45.83
48872;BME280;36154;51.674;7.824;2022-09-17T06:44:21;100432.31;;;24.16;45.83
48872;BME280;36154;51.674;7.824;2022-09-17T06:46:49;100418.41;;;24.17;45.67
48872;BME280;36154;51.674;7.824;2022-09-17T06:49:15;100427.13;;;24.16;45.53
48872;BME280;36154;51.674;7.824;2022-09-17T06:51:42;100414.13;;;24.16;45.74
48872;BME280;36154;51.674;7.824;2022-09-17T06:54:07;100410.69;;;24.16;45.42
48872;BME280;36154;51.674;7.824;2022-09-17T06:56:32;100421.91;;;24.16;45.90
48872;BME280;36154;51.674;7.824;2022-09-17T06:58:58;100423.63;;;24.17;46.04
48872;BME280;36154;51.674;7.824;2022-09-17T07:01:24;100424.50;;;24.16;46.08
48872;BME280;36154;51.674;7.824;2022-09-17T07:03:49;100426.22;;;24.17;46.15
48872;BME280;36154;51.674;7.824;2022-09-17T07:06:14;100425.31;;;24.18;46.21
48872;BME280;36154;51.674;7.824;2022-09-17T07:08:40;100418.41;;;24.17;46.54
48872;BME280;36154;51.674;7.824;2022-09-17T07:11:05;100430.53;;;24.18;46.73
48872;BME280;36154;51.674;7.824;2022-09-17T07:13:32;100433.13;;;24.18;46.46
48872;BME280;36154;51.674;7.824;2022-09-17T07:15:59;100430.53;;;24.18;46.28
48872;BME280;36154;51.674;7.824;2022-09-17T07:18:26;100430.53;;;24.18;46.42
48872;BME280;36154;51.674;7.824;2022-09-17T07:20:56;100420.97;;;24.19;46.36
48872;BME280;36154;51.674;7.824;2022-09-17T07:23:26;100417.44;;;24.20;46.41
48872;BME280;36154;51.674;7.824;2022-09-17T07:25:53;100429.53;;;24.21;46.85
48872;BME280;36154;51.674;7.824;2022-09-17T07:28:20;100437.25;;;24.22;46.83
48872;BME280;36154;51.674;7.824;2022-09-17T07:30:47;100429.47;;;24.22;47.33
48872;BME280;36154;51.674;7.824;2022-09-17T07:33:13;100433.75;;;24.23;47.40
48872;BME280;36154;51.674;7.824;2022-09-17T07:35:38;100438.97;;;24.23;47.26
48872;BME280;36154;51.674;7.824;2022-09-17T07:38:04;100435.44;;;24.24;47.46
48872;BME280;36154;51.674;7.824;2022-09-17T07:40:29;100427.63;;;24.24;47.37
48872;BME280;36154;51.674;7.824;2022-09-17T07:42:58;100425.03;;;24.24;47.47
48872;BME280;36154;51.674;7.824;2022-09-17T07:45:23;100430.22;;;24.24;47.30
48872;BME280;36154;51.674;7.824;2022-09-17T07:47:49;100425.03;;;24.24;47.41
48872;BME280;36154;51.674;7.824;2022-09-17T07:50:14;100423.38;;;24.23;47.32
48872;BME280;36154;51.674;7.824;2022-09-17T07:52:47;100428.50;;;24.25;47.67
48872;BME280;36154;51.674;7.824;2022-09-17T07:55:13;100417.31;;;24.23;47.71
48872;BME280;36154;51.674;7.824;2022-09-17T07:57:39;100429.41;;;24.24;47.52
48872;BME280;36154;51.674;7.824;2022-09-17T08:00:05;100424.19;;;24.24;47.59
48872;BME280;36154;51.674;7.824;2022-09-17T08:02:31;100428.56;;;24.23;47.49
48872;BME280;36154;51.674;7.824;2022-09-17T08:04:56;100436.34;;;24.23;47.46
48872;BME280;36154;51.674;7.824;2022-09-17T08:07:22;100432.06;;;24.22;47.78
48872;BME280;36154;51.674;7.824;2022-09-17T08:09:48;100426.78;;;24.24;47.67
48872;BME280;36154;51.674;7.824;2022-09-17T08:12:14;100433.75;;;24.23;47.63
48872;BME280;36154;51.674;7.824;2022-09-17T08:14:39;100428.56;;;24.23;47.81
48872;BME280;36154;51.674;7.824;2022-09-17T08:17:06;100432.81;;;24.24;47.33
48872;BME280;36154;51.674;7.824;2022-09-17T08:19:32;100429.41;;;24.24;47.39
48872;BME280;36154;51.674;7.824;2022-09-17T08:21:58;100430.22;;;24.24;47.34
48872;BME280;36154;51.674;7.824;2022-09-17T08:24:23;100431.94;;;24.25;47.15
48872;BME280;36154;51.674;7.824;2022-09-17T08:26:48;100425.91;;;24.25;47.46
48872;BME280;36154;51.674;7.824;2022-09-17T08:29:14;100418.94;;;24.25;47.19
48872;BME280;36154;51.674;7.824;2022-09-17T08:31:39;100430.22;;;24.24;47.19
48872;BME280;36154;51.674;7.824;2022-09-17T08:34:08;100419.84;;;24.24;47.30
48872;BME280;36154;51.674;7.824;2022-09-17T08:36:34;100415.56;;;24.23;47.40
48872;BME280;36154;51.674;7.824;2022-09-17T08:38:59;100416.41;;;24.24;47.49
48872;BME280;36154;51.674;7.824;2022-09-17T08:49:27;100418.28;;;24.20;47.48
48872;BME280;36154;51.674;7.824;2022-09-17T09:00:12;100429.28;;;24.27;47.14
48872;BME280;36154;51.674;7.824;2022-09-17T09:02:59;100431.81;;;24.29;47.76
48872;BME280;36154;51.674;7.824;2022-09-17T09:05:46;100417.88;;;24.30;47.80
48872;BME280;36154;51.674;7.824;2022-09-17T09:10:49;100424.78;;;24.31;47.65
48872;BME280;36154;51.674;7.824;2022-09-17T09:13:18;100422.09;;;24.32;47.94
48872;BME280;36154;51.674;7.824;2022-09-17T09:15:54;100424.72;;;24.32;47.98
48872;BME280;36154;51.674;7.824;2022-09-17T09:18:24;100424.66;;;24.34;48.19
48872;BME280;36154;51.674;7.824;2022-09-17T09:20:52;100441.91;;;24.35;47.83
48872;BME280;36154;51.674;7.824;2022-09-17T09:24:25;100434.03;;;24.36;47.87
48872;BME280;36154;51.674;7.824;2022-09-17T09:26:43;100422.81;;;24.36;47.89
48872;BME280;36154;51.674;7.824;2022-09-17T09:32:03;100428.00;;;24.36;48.14
48872;BME280;36154;51.674;7.824;2022-09-17T09:34:33;100421.91;;;24.37;47.74
48872;BME280;36154;51.674;7.824;2022-09-17T09:37:30;100424.50;;;24.37;47.73
48872;BME280;36154;51.674;7.824;2022-09-17T09:40:03;100429.72;;;24.37;47.96
48872;BME280;36154;51.674;7.824;2022-09-17T09:42:32;100428.78;;;24.38;48.01
48872;BME280;36154;51.674;7.824;2022-09-17T09:45:00;100428.78;;;24.38;47.71
48872;BME280;36154;51.674;7.824;2022-09-17T09:47:34;100430.53;;;24.37;47.95
48872;BME280;36154;51.674;7.824;2022-09-17T09:50:33;100427.13;;;24.37;47.65
48872;BME280;36154;51.674;7.824;2022-09-17T09:58:41;100430.63;;;24.36;47.73
48872;BME280;36154;51.674;7.824;2022-09-17T10:01:17;100419.31;;;24.37;47.40
48872;BME280;36154;51.674;7.824;2022-09-17T10:03:47;100413.31;;;24.35;47.41
48872;BME280;36154;51.674;7.824;2022-09-17T10:06:14;100412.41;;;24.36;47.56
48872;BME280;36154;51.674;7.824;2022-09-17T10:11:28;100417.81;;;24.31;47.34
48872;BME280;36154;51.674;7.824;2022-09-17T10:14:23;100418.81;;;24.29;47.31
48872;BME280;36154;51.674;7.824;2022-09-17T10:16:49;100418.00;;;24.26;47.53
48872;BME280;36154;51.674;7.824;2022-09-17T10:19:20;100402.56;;;24.23;47.62
48872;BME280;36154;51.674;7.824;2022-09-17T10:21:50;100402.56;;;24.23;47.23
48872;BME280;36154;51.674;7.824;2022-09-17T10:24:24;100408.72;;;24.21;47.59
48872;BME280;36154;51.674;7.824;2022-09-17T10:26:51;100433.13;;;24.18;47.59
48872;BME280;36154;51.674;7.824;2022-09-17T10:29:24;100446.25;;;24.15;47.72
48872;BME280;36154;51.674;7.824;2022-09-17T10:31:52;100437.63;;;24.13;47.67
48872;BME280;36154;51.674;7.824;2022-09-17T10:36:45;100436.88;;;24.11;47.32
48872;BME280;36154;51.674;7.824;2022-09-17T10:42:16;100431.78;;;24.08;47.34
48872;BME280;36154;51.674;7.824;2022-09-17T10:45:00;100422.34;;;24.07;47.53
48872;BME280;36154;51.674;7.824;2022-09-17T10:47:30;100411.94;;;24.07;47.51
48872;BME280;36154;51.674;7.824;2022-09-17T10:50:01;100406.75;;;24.07;47.35
48872;BME280;36154;51.674;7.824;2022-09-17T10:52:30;100409.22;;;24.10;47.72
48872;BME280;36154;51.674;7.824;2022-09-17T11:03:24;100399.22;;;24.20;47.51
48872;BME280;36154;51.674;7.824;2022-09-17T11:11:09;100412.09;;;24.23;47.27
48872;BME280;36154;51.674;7.824;2022-09-17T11:16:54;100401.56;;;24.26;47.37
48872;BME280;36154;51.674;7.824;2022-09-17T11:22:41;100391.88;;;24.30;46.91
48872;BME280;36154;51.674;7.824;2022-09-17T11:28:10;100394.34;;;24.33;46.94
48872;BME280;36154;51.674;7.824;2022-09-17T11:30:55;100395.13;;;24.35;46.97
48872;BME280;36154;51.674;7.824;2022-09-17T11:36:21;100389.78;;;24.38;47.22
48872;BME280;36154;51.674;7.824;2022-09-17T11:38:50;100387.06;;;24.41;47.16
48872;BME280;36154;51.674;7.824;2022-09-17T11:41:21;100385.22;;;24.43;46.79
48872;BME280;36154;51.674;7.824;2022-09-17T11:46:39;100391.19;;;24.45;46.95
48872;BME280;36154;51.674;7.824;2022-09-17T11:52:02;100382.50;;;24.46;46.47
48872;BME280;36154;51.674;7.824;2022-09-17T11:54:36;100379.88;;;24.46;46.58
48872;BME280;36154;51.674;7.824;2022-09-17T11:57:17;100366.88;;;24.46;46.72
48872;BME280;36154;51.674;7.824;2022-09-17T11:59:55;100375.53;;;24.47;46.50
48872;BME280;36154;51.674;7.824;2022-09-17T12:05:20;100373.78;;;24.47;46.37
48872;BME280;36154;51.674;7.824;2022-09-17T12:08:25;100364.16;;;24.49;46.60
48872;BME280;36154;51.674;7.824;2022-09-17T12:11:12;100370.13;;;24.51;46.50
48872;BME280;36154;51.674;7.824;2022-09-17T12:13:46;100366.63;;;24.52;46.29
48872;BME280;36154;51.674;7.824;2022-09-17T12:16:35;100359.72;;;24.51;46.58
48872;BME280;36154;51.674;7.824;2022-09-17T12:19:26;100362.44;;;24.48;46.24
48872;BME280;36154;51.674;7.824;2022-09-17T12:21:58;100356.22;;;24.52;46.25
48872;BME280;36154;51.674;7.824;2022-09-17T12:24:26;100363.94;;;24.54;46.13
48872;BME280;36154;51.674;7.824;2022-09-17T12:27:27;100368.19;;;24.56;46.10
48872;BME280;36154;51.674;7.824;2022-09-17T12:30:05;100360.25;;;24.59;45.71
48872;BME280;36154;51.674;7.824;2022-09-17T12:52:04;100345.41;;;24.61;45.96
48872;BME280;36154;51.674;7.824;2022-09-17T12:59:53;100325.09;;;24.70;45.84
48872;BME280;36154;51.674;7.824;2022-09-17T13:02:35;100332.88;;;24.70;45.59
48872;BME280;36154;51.674;7.824;2022-09-17T13:16:13;100390.78;;;24.54;45.89
48872;BME280;36154;51.674;7.824;2022-09-17T13:21:16;100385.72;;;24.51;46.03
48872;BME280;36154;51.674;7.824;2022-09-17T13:23:47;100384.06;;;24.50;45.92
48872;BME280;36154;51.674;7.824;2022-09-17T13:26:15;100382.34;;;24.49;46.13
48872;BME280;36154;51.674;7.824;2022-09-17T13:28:50;100393.66;;;24.48;46.12
48872;BME280;36154;51.674;7.824;2022-09-17T13:31:45;100396.25;;;24.48;46.13
48872;BME280;36154;51.674;7.824;2022-09-17T13:36:49;100404.13;;;24.47;46.24
48872;BME280;36154;51.674;7.824;2022-09-17T13:42:05;100400.56;;;24.49;46.07
48872;BME280;36154;51.674;7.824;2022-09-17T13:44:38;100397.06;;;24.50;46.12
48872;BME280;36154;51.674;7.824;2022-09-17T13:47:12;100397.06;;;24.50;45.83
48872;BME280;36154;51.674;7.824;2022-09-17T13:49:50;100386.50;;;24.53;45.98
48872;BME280;36154;51.674;7.824;2022-09-17T13:55:00;100402.91;;;24.55;45.60
48872;BME280;36154;51.674;7.824;2022-09-17T13:57:28;100395.75;;;24.60;45.77
48872;BME280;36154;51.674;7.824;2022-09-17T13:59:57;100384.34;;;24.63;45.61
48872;BME280;36154;51.674;7.824;2022-09-17T14:04:50;100389.28;;;24.69;45.35
48872;BME280;36154;51.674;7.824;2022-09-17T14:09:56;100392.31;;;24.79;45.30
48872;BME280;36154;51.674;7.824;2022-09-17T14:20:53;100390.69;;;24.95;45.32
48872;BME280;36154;51.674;7.824;2022-09-17T14:23:20;100395.72;;;24.98;45.18
48872;BME280;36154;51.674;7.824;2022-09-17T14:25:53;100391.28;;;25.00;45.13
48872;BME280;36154;51.674;7.824;2022-09-17T14:28:47;100393.03;;;25.00;44.88
48872;BME280;36154;51.674;7.824;2022-09-17T14:31:18;100386.09;;;25.00;44.65
48872;BME280;36154;51.674;7.824;2022-09-17T14:33:46;100403.22;;;25.05;44.72
48872;BME280;36154;51.674;7.824;2022-09-17T14:36:17;100404.13;;;25.04;44.62
48872;BME280;36154;51.674;7.824;2022-09-17T14:38:48;100407.69;;;25.03;44.77
48872;BME280;36154;51.674;7.824;2022-09-17T14:41:21;100401.84;;;24.97;45.05
48872;BME280;36154;51.674;7.824;2022-09-17T14:43:55;100404.59;;;24.94;45.17
48872;BME280;36154;51.674;7.824;2022-09-17T14:49:22;100399.81;;;24.85;44.91
48872;BME280;36154;51.674;7.824;2022-09-17T14:51:52;100394.66;;;24.84;45.54
48872;BME280;36154;51.674;7.824;2022-09-17T14:54:23;100398.28;;;24.81;45.27
48872;BME280;36154;51.674;7.824;2022-09-17T14:56:56;100386.16;;;24.80;45.14
48872;BME280;36154;51.674;7.824;2022-09-17T15:01:51;100386.16;;;24.80;45.29
48872;BME280;36154;51.674;7.824;2022-09-17T15:04:21;100386.97;;;24.82;45.32
48872;BME280;36154;51.674;7.824;2022-09-17T15:06:47;100394.47;;;24.88;44.99
48872;BME280;36154;51.674;7.824;2022-09-17T15:09:20;100385.59;;;24.92;45.37
48872;BME280;36154;51.674;7.824;2022-09-17T15:11:47;100390.50;;;24.98;45.27
48872;BME280;36154;51.674;7.824;2022-09-17T15:14:21;100387.69;;;25.03;45.40
48872;BME280;36154;51.674;7.824;2022-09-17T15:16:49;100395.28;;;25.08;45.14
48872;BME280;36154;51.674;7.824;2022-09-17T15:19:36;100383.88;;;25.10;44.87
48872;BME280;36154;51.674;7.824;2022-09-17T15:22:15;100395.91;;;25.13;44.78
48872;BME280;36154;51.674;7.824;2022-09-17T15:24:55;100396.66;;;25.15;44.79
48872;BME280;36154;51.674;7.824;2022-09-17T15:29:53;100409.69;;;25.15;44.58
48872;BME280;36154;51.674;7.824;2022-09-17T15:32:21;100409.63;;;25.16;44.84
48872;BME280;36154;51.674;7.824;2022-09-17T15:37:49;100396.66;;;25.15;44.91
48872;BME280;36154;51.674;7.824;2022-09-17T15:40:30;100385.50;;;25.13;44.86
48872;BME280;36154;51.674;7.824;2022-09-17T15:43:43;100393.31;;;25.13;44.94
48872;BME280;36154;51.674;7.824;2022-09-17T15:45:50;100398.50;;;25.13;44.57
48872;BME280;36154;51.674;7.824;2022-09-17T15:48:33;100397.59;;;25.14;44.66
48872;BME280;36154;51.674;7.824;2022-09-17T15:51:00;100396.81;;;25.12;44.88
48872;BME280;36154;51.674;7.824;2022-09-17T15:53:31;100396.97;;;25.09;44.87
48872;BME280;36154;51.674;7.824;2022-09-17T15:56:12;100403.16;;;25.06;44.83